createdAt,value
2019-04-16T00:03:43.260Z,6.40
2019-04-16T00:06:59.266Z,7.03
2019-04-16T00:10:16.287Z,7.13
2019-04-16T00:13:25.388Z,6.90
2019-04-16T00:16:34.024Z,6.33
2019-04-16T00:19:41.309Z,6.30
2019-04-16T00:22:55.852Z,6.43
2019-04-16T00:26:02.789Z,6.97
2019-04-16T00:29:09.617Z,7.03
2019-04-16T00:32:18.271Z,6.33
2019-04-16T00:35:25.294Z,6.63
2019-04-16T00:38:40.738Z,6.80
2019-04-16T00:41:41.305Z,6.30
2019-04-16T00:44:48.331Z,6.30
2019-04-16T00:47:55.496Z,6.40
2019-04-16T00:51:04.072Z,6.40
2019-04-16T00:54:11.378Z,6.60
2019-04-16T00:57:18.718Z,7.03
2019-04-16T01:00:27.773Z,6.87
2019-04-16T01:03:34.273Z,6.20
2019-04-16T01:06:41.466Z,6.00
2019-04-16T01:09:48.438Z,6.70
2019-04-16T01:12:55.682Z,6.13
2019-04-16T01:16:03.895Z,5.90
2019-04-16T01:22:18.472Z,5.93
2019-04-16T01:25:25.452Z,5.40
2019-04-16T01:31:48.488Z,6.10
2019-04-16T01:35:13.521Z,5.70
2019-04-16T01:38:31.476Z,5.37
2019-04-16T01:44:44.520Z,5.60
2019-04-16T01:47:51.499Z,5.30
2019-04-16T01:50:58.709Z,6.07
2019-04-16T01:54:05.675Z,5.30
2019-04-16T01:57:12.609Z,5.37
2019-04-16T02:00:19.509Z,6.20
2019-04-16T02:03:26.321Z,5.47
2019-04-16T02:06:33.755Z,5.67
2019-04-16T02:09:41.110Z,5.73
2019-04-16T02:12:48.265Z,5.43
2019-04-16T02:15:55.276Z,6.13
2019-04-16T02:19:02.676Z,5.90
2019-04-16T02:22:12.595Z,4.90
2019-04-16T02:28:28.282Z,6.07
2019-04-16T02:31:35.433Z,6.37
2019-04-16T02:37:49.494Z,5.47
2019-04-16T02:40:56.495Z,5.50
2019-04-16T02:44:03.729Z,5.83
2019-04-16T02:47:11.314Z,5.63
2019-04-16T02:50:30.671Z,5.70
2019-04-16T02:53:36.887Z,6.23
2019-04-16T02:56:55.661Z,5.13
2019-04-16T03:00:05.065Z,5.60
2019-04-16T03:03:16.474Z,5.20
2019-04-16T03:12:36.236Z,4.43
2019-04-16T03:15:57.040Z,6.67
2019-04-16T03:22:15.274Z,4.67
2019-04-16T03:25:22.256Z,5.57
2019-04-16T03:28:29.282Z,5.60
2019-04-16T03:31:36.364Z,6.30
2019-04-16T03:34:43.291Z,5.00
2019-04-16T03:44:04.769Z,5.03
2019-04-16T03:47:12.285Z,5.20
2019-04-16T03:50:19.523Z,5.43
2019-04-16T03:53:26.512Z,5.40
2019-04-16T03:56:33.488Z,5.93
2019-04-16T03:59:40.821Z,5.63
2019-04-16T04:02:47.691Z,5.33
2019-04-16T04:05:58.237Z,5.47
2019-04-16T04:09:06.396Z,6.07
2019-04-16T04:12:14.596Z,6.07
2019-04-16T04:15:26.080Z,5.17
2019-04-16T04:18:30.224Z,5.80
2019-04-16T04:21:37.556Z,6.00
2019-04-16T04:24:44.455Z,6.27
2019-04-16T04:34:05.471Z,6.17
2019-04-16T04:40:18.680Z,6.03
2019-04-16T04:43:25.507Z,5.90
2019-04-16T04:46:32.872Z,5.50
2019-04-16T04:49:40.267Z,5.80
2019-04-16T04:52:47.304Z,5.70
2019-04-16T04:55:54.431Z,5.00
2019-04-16T04:59:05.175Z,5.80
2019-04-16T05:02:14.665Z,5.70
2019-04-16T05:05:25.584Z,5.40
2019-04-16T05:08:31.915Z,5.70
2019-04-16T05:11:39.474Z,5.47
2019-04-16T05:14:57.110Z,5.80
2019-04-16T05:21:09.774Z,5.57
2019-04-16T05:24:16.969Z,5.20
2019-04-16T05:27:24.262Z,6.00
2019-04-16T05:30:31.352Z,6.27
2019-04-16T05:33:38.281Z,5.93
2019-04-16T05:36:47.721Z,6.87
2019-04-16T05:39:58.583Z,6.23
2019-04-16T05:43:02.560Z,6.50
2019-04-16T05:46:12.026Z,7.23
2019-04-16T05:49:19.266Z,6.90
2019-04-16T05:52:26.263Z,7.53
2019-04-16T05:55:49.353Z,6.50
2019-04-16T05:58:53.854Z,6.90
2019-04-16T06:02:02.450Z,6.03
2019-04-16T06:05:09.579Z,6.97
2019-04-16T06:08:16.601Z,7.30
2019-04-16T06:11:29.817Z,6.83
2019-04-16T06:14:33.646Z,7.70
2019-04-16T06:17:53.086Z,8.37
2019-04-16T06:21:18.568Z,8.13
2019-04-16T06:24:40.140Z,8.40
2019-04-16T06:27:54.674Z,7.87
2019-04-16T06:31:19.069Z,8.50
2019-04-16T06:34:39.938Z,8.63
2019-04-16T06:37:54.922Z,7.60
2019-04-16T06:41:07.273Z,8.27
2019-04-16T06:44:16.050Z,7.17
2019-04-16T06:47:42.136Z,7.63
2019-04-16T06:51:00.309Z,7.10
2019-04-16T06:54:25.942Z,7.23
2019-04-16T06:57:42.950Z,6.63
2019-04-16T07:00:51.731Z,7.03
2019-04-16T07:04:06.496Z,7.47
2019-04-16T07:07:22.569Z,6.90
2019-04-16T07:10:44.477Z,7.47
2019-04-16T07:13:43.294Z,7.90
2019-04-16T07:16:50.569Z,8.17
2019-04-16T07:19:57.395Z,8.23
2019-04-16T07:29:24.303Z,8.27
2019-04-16T07:32:34.202Z,7.90
2019-04-16T07:35:58.817Z,8.40
2019-04-16T07:39:29.371Z,8.53
2019-04-16T07:45:59.910Z,9.33
2019-04-16T07:49:26.381Z,8.57
2019-04-16T07:52:35.705Z,8.30
2019-04-16T07:55:50.127Z,8.03
2019-04-16T07:59:00.263Z,9.10
2019-04-16T08:02:05.788Z,7.70
2019-04-16T08:05:12.710Z,8.70
2019-04-16T08:08:24.293Z,8.03
2019-04-16T08:11:28.269Z,8.40
2019-04-16T08:14:35.255Z,8.23
2019-04-16T08:17:42.247Z,8.30
2019-04-16T08:21:00.601Z,8.33
2019-04-16T08:24:02.604Z,9.23
2019-04-16T08:27:10.834Z,8.47
2019-04-16T08:30:21.410Z,9.40
2019-04-16T08:36:36.624Z,9.73
2019-04-16T08:39:46.360Z,8.10
2019-04-16T08:46:01.538Z,8.73
2019-04-16T08:49:08.620Z,8.93
2019-04-16T08:52:15.486Z,8.53
2019-04-16T08:55:23.653Z,8.03
2019-04-16T08:58:31.302Z,8.07
2019-04-16T09:01:38.529Z,8.63
2019-04-16T09:04:45.490Z,9.20
2019-04-16T09:07:52.553Z,11.17
2019-04-16T09:11:00.439Z,9.27
2019-04-16T09:14:09.234Z,9.10
2019-04-16T09:17:17.796Z,9.20
2019-04-16T09:20:26.362Z,9.90
2019-04-16T09:23:33.274Z,8.90
2019-04-16T09:26:55.674Z,9.13
2019-04-16T09:30:20.918Z,9.20
2019-04-16T09:33:33.463Z,9.03
2019-04-16T09:36:55.902Z,9.60
2019-04-16T09:40:15.943Z,9.40
2019-04-16T09:43:26.496Z,9.47
2019-04-16T09:46:50.516Z,9.87
2019-04-16T09:49:42.596Z,10.27
2019-04-16T09:52:49.461Z,9.80
2019-04-16T09:55:56.373Z,9.30
2019-04-16T10:02:19.271Z,9.20
2019-04-16T10:05:29.685Z,9.60
2019-04-16T10:08:35.385Z,9.30
2019-04-16T10:11:42.917Z,8.50
2019-04-16T10:14:50.082Z,9.03
2019-04-16T10:17:58.603Z,8.63
2019-04-16T10:21:08.697Z,10.37
2019-04-16T10:24:26.448Z,6.43
2019-04-16T10:27:47.300Z,9.50
2019-04-16T10:34:01.258Z,9.13
2019-04-16T10:37:09.658Z,9.70
2019-04-16T10:40:29.269Z,9.80
2019-04-16T10:43:54.061Z,9.27
2019-04-16T10:47:02.671Z,9.20
2019-04-16T10:50:28.300Z,8.67
2019-04-16T10:53:35.462Z,9.05
2019-04-16T11:00:26.408Z,10.03
2019-04-16T11:03:37.575Z,8.80
2019-04-16T11:06:46.273Z,12.10
2019-04-16T11:09:53.353Z,11.23
2019-04-16T11:13:02.330Z,10.77
2019-04-16T11:16:11.308Z,10.27
2019-04-16T11:19:18.460Z,9.57
2019-04-16T11:22:25.424Z,10.23
2019-04-16T11:28:39.264Z,10.15
2019-04-16T11:31:46.304Z,8.80
2019-04-16T11:34:53.368Z,9.83
2019-04-16T11:38:00.686Z,9.48
2019-04-16T11:41:09.274Z,10.20
2019-04-16T11:44:17.336Z,8.87
2019-04-16T11:47:27.901Z,10.63
2019-04-16T11:50:35.985Z,10.33
2019-04-16T11:53:43.362Z,11.00
2019-04-16T11:56:50.718Z,10.97
2019-04-16T12:00:06.671Z,11.03
2019-04-16T12:09:44.506Z,10.40
2019-04-16T12:13:03.444Z,10.32
2019-04-16T12:19:37.346Z,10.97
2019-04-16T12:23:02.526Z,10.33
2019-04-16T12:26:20.290Z,10.80
2019-04-16T12:29:28.941Z,10.27
2019-04-16T12:32:37.390Z,9.93
2019-04-16T12:39:09.373Z,10.43
2019-04-16T12:42:19.694Z,10.55
2019-04-16T12:45:28.346Z,10.00
2019-04-16T12:52:01.318Z,9.68
2019-04-16T12:55:23.592Z,9.45
2019-04-16T12:58:40.368Z,9.80
2019-04-16T13:01:53.341Z,9.18
2019-04-16T13:05:02.076Z,10.25
2019-04-16T13:11:27.302Z,9.23
2019-04-16T13:21:14.865Z,9.60
2019-04-16T13:24:24.294Z,9.75
2019-04-16T13:27:32.921Z,8.40
2019-04-16T13:30:40.488Z,9.38
2019-04-16T13:33:50.749Z,9.03
2019-04-16T13:36:59.238Z,9.00
2019-04-16T13:40:15.059Z,8.40
2019-04-16T13:43:24.136Z,8.93
2019-04-16T13:46:34.595Z,8.70
2019-04-16T13:49:45.410Z,9.13
2019-04-16T13:56:19.769Z,9.33
2019-04-16T13:59:45.068Z,9.58
2019-04-16T14:02:56.501Z,8.73
2019-04-16T14:06:03.412Z,9.03
2019-04-16T14:12:24.456Z,9.00
2019-04-16T14:15:32.165Z,9.20
2019-04-16T14:18:38.242Z,9.23
2019-04-16T14:21:45.282Z,9.53
2019-04-16T14:24:52.262Z,8.60
2019-04-16T14:28:03.165Z,9.47
2019-04-16T14:31:10.110Z,8.73
2019-04-16T14:34:24.646Z,8.30
2019-04-16T14:37:31.578Z,8.90
2019-04-16T14:40:39.665Z,6.83
2019-04-16T14:43:49.695Z,7.87
2019-04-16T14:47:00.640Z,8.73
2019-04-16T14:50:08.454Z,8.83
2019-04-16T14:53:17.254Z,9.20
2019-04-16T14:56:32.262Z,9.77
2019-04-16T14:59:57.269Z,7.87
2019-04-16T15:03:08.263Z,8.20
2019-04-16T15:06:22.426Z,9.07
2019-04-16T15:09:31.246Z,8.03
2019-04-16T15:12:45.572Z,8.30
2019-04-16T15:16:08.183Z,8.70
2019-04-16T15:19:21.958Z,8.47
2019-04-16T15:22:35.044Z,9.50
2019-04-16T15:25:44.685Z,7.05
2019-04-16T15:29:05.963Z,8.45
2019-04-16T15:32:23.463Z,8.63
2019-04-16T15:35:32.104Z,7.93
2019-04-16T15:38:45.268Z,10.43
2019-04-16T15:41:57.050Z,8.53
2019-04-16T15:45:08.983Z,7.65
2019-04-16T15:48:17.982Z,8.45
2019-04-16T15:51:29.695Z,7.78
2019-04-16T15:54:38.470Z,7.65
2019-04-16T15:57:45.246Z,8.78
2019-04-16T16:00:56.970Z,9.00
2019-04-16T16:04:15.228Z,9.03
2019-04-16T16:10:49.776Z,9.70
2019-04-16T16:13:59.951Z,9.50
2019-04-16T16:17:05.263Z,8.98
2019-04-16T16:20:12.741Z,9.93
2019-04-16T16:23:19.910Z,8.98
2019-04-16T16:26:27.251Z,9.78
2019-04-16T16:29:34.472Z,10.70
2019-04-16T16:32:42.270Z,12.53
2019-04-16T16:35:57.767Z,11.95
2019-04-16T16:38:58.326Z,11.45
2019-04-16T16:42:05.407Z,12.23
2019-04-16T16:45:13.506Z,13.20
2019-04-16T16:48:22.055Z,10.47
2019-04-16T16:51:29.710Z,11.43
2019-04-16T16:54:37.264Z,11.20
2019-04-16T16:57:45.735Z,10.07
2019-04-16T17:01:06.340Z,10.97
2019-04-16T17:04:21.246Z,11.70
2019-04-16T17:07:28.277Z,11.23
2019-04-16T17:10:35.346Z,12.63
2019-04-16T17:13:42.573Z,12.27
2019-04-16T17:16:50.719Z,12.40
2019-04-16T17:19:57.806Z,12.70
2019-04-16T17:23:04.874Z,11.60
2019-04-16T17:26:15.467Z,11.10
2019-04-16T17:29:21.336Z,12.50
2019-04-16T17:35:34.517Z,12.03
2019-04-16T17:38:41.521Z,11.40
2019-04-16T17:42:05.649Z,10.90
2019-04-16T17:45:21.782Z,10.00
2019-04-16T17:48:33.306Z,9.77
2019-04-16T17:51:48.308Z,10.43
2019-04-16T17:54:59.528Z,8.97
2019-04-16T17:58:11.490Z,9.17
2019-04-16T18:04:27.278Z,8.67
2019-04-16T18:07:52.508Z,8.27
2019-04-16T18:11:11.273Z,8.67
2019-04-16T18:14:19.241Z,9.67
2019-04-16T18:17:47.210Z,8.63
2019-04-16T18:21:13.503Z,8.57
2019-04-16T18:24:26.956Z,8.60
2019-04-16T18:27:38.381Z,7.83
2019-04-16T18:34:00.281Z,8.00
2019-04-16T18:37:26.268Z,8.67
2019-04-16T18:40:39.481Z,9.37
2019-04-16T18:44:02.392Z,8.07
2019-04-16T18:47:17.553Z,8.15
2019-04-16T18:50:28.201Z,8.40
2019-04-16T18:56:43.542Z,8.90
2019-04-16T18:59:50.744Z,8.15
2019-04-16T19:02:59.440Z,8.27
2019-04-16T19:06:08.923Z,8.53
2019-04-16T19:09:20.766Z,8.73
2019-04-16T19:12:27.351Z,8.87
2019-04-16T19:15:35.514Z,8.67
2019-04-16T19:18:42.947Z,8.90
2019-04-16T19:21:52.243Z,8.97
2019-04-16T19:24:59.275Z,8.90
2019-04-16T19:35:09.957Z,9.20
2019-04-16T19:38:12.252Z,9.53
2019-04-16T19:41:23.379Z,12.03
2019-04-16T19:44:33.282Z,10.73
2019-04-16T19:47:38.948Z,9.97
2019-04-16T19:50:46.252Z,9.37
2019-04-16T19:53:53.259Z,8.40
2019-04-16T19:57:02.415Z,8.50
2019-04-16T20:00:09.543Z,8.10
2019-04-16T20:03:16.981Z,8.67
2019-04-16T20:06:26.153Z,8.37
2019-04-16T20:09:33.278Z,9.73
2019-04-16T20:12:40.645Z,8.50
2019-04-16T20:15:47.474Z,8.77
2019-04-16T20:18:54.740Z,8.67
2019-04-16T20:22:01.971Z,9.17
2019-04-16T20:25:09.106Z,8.63
2019-04-16T20:28:16.659Z,8.60
2019-04-16T20:31:24.144Z,9.07
2019-04-16T20:34:31.331Z,9.10
2019-04-16T20:37:38.275Z,8.55
2019-04-16T20:40:46.849Z,9.37
2019-04-16T20:43:53.675Z,9.17
2019-04-16T20:47:07.553Z,8.87
2019-04-16T20:50:11.088Z,8.70
2019-04-16T20:53:18.177Z,8.23
2019-04-16T21:05:57.348Z,10.30
2019-04-16T21:08:56.099Z,12.40
2019-04-16T21:12:01.694Z,11.00
2019-04-16T21:15:09.273Z,10.43
2019-04-16T21:18:17.338Z,9.07
2019-04-16T21:21:24.378Z,9.33
2019-04-16T21:24:31.661Z,8.03
2019-04-16T21:27:40.326Z,7.77
2019-04-16T21:30:49.191Z,8.73
2019-04-16T21:34:10.755Z,7.30
2019-04-16T21:37:35.908Z,10.53
2019-04-16T21:40:43.274Z,8.27
2019-04-16T21:43:52.303Z,9.13
2019-04-16T21:46:59.629Z,8.40
2019-04-16T21:50:08.551Z,8.40
2019-04-16T21:53:15.583Z,9.27
2019-04-16T21:56:22.498Z,9.40
2019-04-16T22:05:48.343Z,9.57
2019-04-16T22:08:55.866Z,8.67
2019-04-16T22:12:02.946Z,7.60
2019-04-16T22:15:10.424Z,7.87
2019-04-16T22:18:18.928Z,7.47
2019-04-16T22:21:25.766Z,7.57
2019-04-16T22:24:33.304Z,7.47
2019-04-16T22:27:40.466Z,7.20
2019-04-16T22:30:51.206Z,7.97
2019-04-16T22:37:03.262Z,7.10
2019-04-16T22:40:22.513Z,7.23
2019-04-16T22:43:45.559Z,6.03
2019-04-16T22:47:03.271Z,7.07
2019-04-16T22:50:16.801Z,7.20
2019-04-16T22:53:18.862Z,7.17
2019-04-16T22:59:39.023Z,6.87
2019-04-16T23:02:48.090Z,6.90
2019-04-16T23:05:53.347Z,7.00
2019-04-16T23:09:00.272Z,6.43
2019-04-16T23:12:08.576Z,7.07
2019-04-16T23:15:15.483Z,6.77
2019-04-16T23:18:23.340Z,6.80
2019-04-16T23:24:36.598Z,7.30
2019-04-16T23:27:43.673Z,6.87
2019-04-16T23:30:51.225Z,6.00
2019-04-16T23:34:04.519Z,6.37
2019-04-16T23:37:07.643Z,7.27
2019-04-16T23:40:14.688Z,7.10
2019-04-16T23:43:32.526Z,7.10
2019-04-16T23:46:50.083Z,7.10
2019-04-16T23:50:07.658Z,7.10
2019-04-16T23:53:16.370Z,6.27
2019-04-16T23:56:30.934Z,6.83
2019-04-16T23:59:41.037Z,6.37
